Bethlehem, New Hampshire
Current Conditions -  °F | °C
As of 4:11 AM on Wednesday 22 Oct 2014 (Local Time) from KHIE Reporting Station
Overcast Overcast  
Wind Chill:   Ceiling: 4800
Heat Index:   Visibility: 10mi
Dew Point:   Wind: 7mph
Humidity: 86%   Direction: 70°ENE
Pressure: 30.1"   Gusts: NA
Location:  44.28°N, 71.69°W
Report Text: KHIE 220811Z AUTO 07006KT 10SM SCT018 BKN048 OVC070 08/06 A3010 RMK AO2 RAE01 P0000 T00780056
Loading
Personal Weather Stations






























Interactive Weather Map
Tropical Storm Tracking
New forecast layout! Learn more

10-Day Weather Forecast

Advertisements
Track Severe Weather on mobile